createdAt,value
2022-09-07T00:00:37.218Z,4.90
2022-09-07T00:05:48.226Z,4.68
2022-09-07T00:11:01.975Z,4.40
2022-09-07T00:16:06.913Z,4.72
2022-09-07T00:21:10.247Z,4.63
2022-09-07T00:26:15.336Z,4.20
2022-09-07T00:31:22.917Z,4.65
2022-09-07T00:41:28.234Z,4.85
2022-09-07T00:46:34.328Z,4.45
2022-09-07T00:51:43.870Z,4.55
2022-09-07T00:56:47.174Z,4.32
2022-09-07T01:01:49.501Z,4.75
2022-09-07T01:06:54.036Z,4.60
2022-09-07T01:11:59.809Z,4.15
2022-09-07T01:17:49.502Z,4.68
2022-09-07T01:23:03.363Z,4.45
2022-09-07T01:28:24.887Z,4.15
2022-09-07T01:33:47.635Z,4.45
2022-09-07T01:39:02.320Z,4.53
2022-09-07T01:44:21.973Z,4.65
2022-09-07T01:49:29.465Z,4.13
2022-09-07T01:55:13.899Z,4.13
2022-09-07T02:00:19.925Z,4.30
2022-09-07T02:05:27.003Z,4.10
2022-09-07T02:10:39.103Z,4.25
2022-09-07T02:15:52.686Z,4.80
2022-09-07T02:20:58.092Z,4.05
2022-09-07T02:26:07.082Z,3.90
2022-09-07T02:31:09.058Z,5.10
2022-09-07T02:36:13.447Z,3.83
2022-09-07T02:41:35.225Z,4.07
2022-09-07T02:47:05.036Z,3.97
2022-09-07T02:52:43.779Z,4.18
2022-09-07T02:58:19.084Z,4.13
2022-09-07T03:03:41.855Z,3.63
2022-09-07T03:08:55.621Z,4.50
2022-09-07T03:14:26.357Z,4.05
2022-09-07T03:19:28.345Z,4.75
2022-09-07T03:24:30.270Z,4.18
2022-09-07T03:29:32.194Z,4.30
2022-09-07T03:34:34.310Z,4.85
2022-09-07T03:39:36.733Z,4.57
2022-09-07T03:44:38.635Z,4.45
2022-09-07T03:49:40.650Z,4.90
2022-09-07T03:54:42.516Z,4.68
2022-09-07T03:59:45.299Z,5.25
2022-09-07T04:04:47.225Z,4.65
2022-09-07T04:09:51.617Z,4.50
2022-09-07T04:14:53.506Z,4.57
2022-09-07T04:19:55.923Z,4.78
2022-09-07T04:24:57.943Z,4.80
2022-09-07T04:30:00.237Z,4.30
2022-09-07T04:35:02.614Z,5.05
2022-09-07T04:40:05.743Z,4.20
2022-09-07T04:45:08.413Z,4.57
2022-09-07T04:50:10.517Z,5.05
2022-09-07T04:55:12.790Z,4.60
2022-09-07T05:00:15.230Z,4.75
2022-09-07T05:05:17.307Z,4.63
2022-09-07T05:10:19.659Z,5.38
2022-09-07T05:15:21.802Z,5.38
2022-09-07T05:20:24.531Z,4.97
2022-09-07T05:25:29.267Z,4.65
2022-09-07T05:35:59.138Z,5.97
2022-09-07T05:41:01.380Z,6.25
2022-09-07T05:46:03.889Z,6.28
2022-09-07T05:51:07.290Z,6.38
2022-09-07T05:56:09.931Z,6.32
2022-09-07T06:01:13.427Z,6.88
2022-09-07T06:06:19.011Z,6.60
2022-09-07T06:11:23.628Z,6.30
2022-09-07T06:16:26.102Z,6.88
2022-09-07T06:21:28.487Z,6.32
2022-09-07T06:26:31.507Z,7.07
2022-09-07T06:31:34.564Z,6.80
2022-09-07T06:36:36.677Z,7.28
2022-09-07T06:47:05.370Z,6.22
2022-09-07T06:52:07.397Z,6.82
2022-09-07T06:57:09.739Z,7.45
2022-09-07T07:02:15.344Z,7.53
2022-09-07T07:07:17.864Z,7.20
2022-09-07T07:17:20.840Z,6.80
2022-09-07T07:22:45.980Z,7.22
2022-09-07T07:27:48.468Z,8.02
2022-09-07T07:32:50.426Z,8.48
2022-09-07T07:43:15.578Z,7.32
2022-09-07T07:48:17.413Z,7.65
2022-09-07T07:58:46.447Z,7.53
2022-09-07T08:03:49.390Z,7.90
2022-09-07T08:08:51.470Z,6.45
2022-09-07T08:13:55.172Z,7.53
2022-09-07T08:18:58.255Z,7.38
2022-09-07T08:24:00.248Z,6.60
2022-09-07T08:29:02.408Z,7.35
2022-09-07T08:34:04.365Z,7.07
2022-09-07T08:39:06.571Z,6.82
2022-09-07T08:44:38.784Z,7.43
2022-09-07T08:50:01.439Z,6.53
2022-09-07T08:55:11.951Z,6.75
2022-09-07T09:00:17.611Z,6.32
2022-09-07T09:05:28.477Z,6.53
2022-09-07T09:10:45.465Z,6.88
2022-09-07T09:15:52.349Z,6.77
2022-09-07T09:20:56.936Z,5.90
2022-09-07T09:26:16.074Z,5.65
2022-09-07T09:31:20.953Z,4.85
2022-09-07T09:36:26.002Z,4.53
2022-09-07T09:41:37.554Z,4.78
2022-09-07T09:46:39.935Z,4.38
2022-09-07T09:57:16.603Z,4.10
2022-09-07T10:07:55.038Z,4.65
2022-09-07T10:12:57.279Z,4.28
2022-09-07T10:17:59.971Z,4.45
2022-09-07T10:23:03.454Z,4.28
2022-09-07T10:28:14.635Z,4.03
2022-09-07T10:34:25.636Z,4.40
2022-09-07T10:39:14.289Z,4.07
2022-09-07T10:44:36.089Z,3.92
2022-09-07T10:50:25.792Z,3.47
2022-09-07T10:55:34.201Z,3.90
2022-09-07T11:01:04.103Z,4.35
2022-09-07T11:06:15.444Z,4.95
2022-09-07T11:11:20.501Z,4.18
2022-09-07T11:22:01.195Z,3.97
2022-09-07T11:27:12.374Z,4.07
2022-09-07T11:32:29.915Z,4.80
2022-09-07T11:37:55.695Z,4.72
2022-09-07T11:43:21.795Z,4.63
2022-09-07T11:49:10.805Z,4.40
2022-09-07T11:54:37.395Z,4.07
2022-09-07T12:00:11.394Z,3.55
2022-09-07T12:05:41.715Z,3.35
2022-09-07T12:10:46.606Z,3.42
2022-09-07T12:15:59.932Z,3.55
2022-09-07T12:21:01.995Z,4.78
2022-09-07T12:26:35.585Z,4.00
2022-09-07T12:31:58.818Z,2.72
2022-09-07T12:37:12.521Z,3.63
2022-09-07T12:42:37.836Z,2.95
2022-09-07T12:47:40.674Z,3.22
2022-09-07T12:52:53.463Z,4.68
2022-09-07T12:58:10.215Z,4.07
2022-09-07T13:14:08.845Z,3.83
2022-09-07T13:19:48.939Z,4.57
2022-09-07T13:24:55.723Z,5.45
2022-09-07T13:30:01.264Z,4.85
2022-09-07T13:35:05.557Z,4.90
2022-09-07T13:40:11.566Z,2.65
2022-09-07T13:45:33.315Z,2.40
2022-09-07T13:51:17.437Z,1.50
2022-09-07T13:56:45.571Z,2.58
2022-09-07T14:01:49.678Z,2.10
2022-09-07T14:07:03.838Z,2.92
2022-09-07T14:12:20.416Z,3.33
2022-09-07T14:17:22.589Z,5.53
2022-09-07T14:22:35.316Z,4.93
2022-09-07T14:27:42.942Z,5.03
2022-09-07T14:32:49.803Z,5.30
2022-09-07T14:37:53.254Z,5.72
2022-09-07T14:42:55.936Z,5.05
2022-09-07T14:47:58.015Z,3.67
2022-09-07T14:58:32.293Z,2.40
2022-09-07T15:03:55.762Z,3.47
2022-09-07T15:08:57.912Z,3.60
2022-09-07T15:14:02.207Z,3.78
2022-09-07T15:19:33.044Z,4.43
2022-09-07T15:24:35.629Z,4.68
2022-09-07T15:29:37.477Z,6.10
2022-09-07T15:34:39.279Z,7.28
2022-09-07T15:39:41.169Z,7.03
2022-09-07T15:44:43.042Z,6.68
2022-09-07T15:49:50.312Z,6.90
2022-09-07T15:54:53.366Z,7.03
2022-09-07T15:59:55.185Z,7.18
2022-09-07T16:04:57.098Z,6.68
2022-09-07T16:10:02.531Z,6.68
2022-09-07T16:15:06.019Z,6.35
2022-09-07T16:20:08.353Z,5.50
2022-09-07T16:25:10.176Z,4.68
2022-09-07T16:30:13.408Z,4.15
2022-09-07T16:35:15.327Z,3.55
2022-09-07T16:40:17.241Z,4.13
2022-09-07T16:50:56.578Z,3.42
2022-09-07T16:56:05.163Z,3.63
2022-09-07T17:01:09.537Z,4.47
2022-09-07T17:06:13.433Z,4.80
2022-09-07T17:11:18.324Z,4.18
2022-09-07T17:16:29.908Z,5.00
2022-09-07T17:21:34.314Z,4.35
2022-09-07T17:26:36.238Z,3.92
2022-09-07T17:37:01.102Z,4.22
2022-09-07T17:42:03.226Z,4.75
2022-09-07T17:47:05.306Z,4.53
2022-09-07T17:52:07.115Z,4.43
2022-09-07T17:57:08.934Z,5.10
2022-09-07T18:02:13.802Z,4.05
2022-09-07T18:07:15.705Z,4.18
2022-09-07T18:12:17.708Z,3.42
2022-09-07T18:17:19.583Z,3.92
2022-09-07T18:22:21.388Z,4.40
2022-09-07T18:27:23.126Z,3.55
2022-09-07T18:32:25.047Z,4.45
2022-09-07T18:37:26.821Z,4.25
2022-09-07T18:42:29.963Z,4.72
2022-09-07T18:47:31.787Z,4.30
2022-09-07T18:57:56.091Z,4.53
2022-09-07T19:02:57.811Z,3.92
2022-09-07T19:08:02.648Z,4.32
2022-09-07T19:13:04.722Z,4.60
2022-09-07T19:18:07.852Z,4.43
2022-09-07T19:23:09.811Z,3.92
2022-09-07T19:28:11.651Z,3.80
2022-09-07T19:33:13.661Z,4.10
2022-09-07T19:38:15.427Z,5.13
2022-09-07T19:43:17.142Z,4.25
2022-09-07T19:48:18.917Z,4.35
2022-09-07T19:53:20.921Z,4.70
2022-09-07T19:58:22.711Z,4.25
2022-09-07T20:03:24.773Z,4.60
2022-09-07T20:08:26.618Z,4.35
2022-09-07T20:13:28.481Z,4.50
2022-09-07T20:18:31.024Z,4.32
2022-09-07T20:23:34.480Z,4.45
2022-09-07T20:28:37.088Z,5.13
2022-09-07T20:33:39.511Z,4.35
2022-09-07T20:38:53.271Z,4.50
2022-09-07T20:43:56.720Z,4.18
2022-09-07T20:48:58.871Z,4.03
2022-09-07T20:54:00.747Z,4.25
2022-09-07T20:59:03.248Z,4.22
2022-09-07T21:04:06.357Z,4.57
2022-09-07T21:09:08.372Z,4.32
2022-09-07T21:14:13.850Z,4.88
2022-09-07T21:19:15.824Z,4.65
2022-09-07T21:24:20.937Z,4.63
2022-09-07T21:29:24.767Z,4.03
2022-09-07T21:34:26.603Z,4.13
2022-09-07T21:39:28.485Z,4.20
2022-09-07T21:44:30.542Z,3.88
2022-09-07T21:49:32.467Z,3.80
2022-09-07T21:54:34.518Z,3.95
2022-09-07T21:59:36.464Z,3.50
2022-09-07T22:04:38.320Z,3.55
2022-09-07T22:09:40.191Z,3.55
2022-09-07T22:14:44.048Z,4.38
2022-09-07T22:19:45.947Z,3.78
2022-09-07T22:24:47.958Z,4.43
2022-09-07T22:29:49.929Z,4.43
2022-09-07T22:34:51.852Z,4.18
2022-09-07T22:39:54.124Z,4.13
2022-09-07T22:44:56.299Z,3.38
2022-09-07T22:49:58.492Z,3.92
2022-09-07T22:55:00.279Z,4.00
2022-09-07T23:00:02.394Z,3.53
2022-09-07T23:05:04.294Z,3.75
2022-09-07T23:10:06.817Z,3.63
2022-09-07T23:15:08.964Z,5.18
2022-09-07T23:20:10.805Z,3.58
2022-09-07T23:25:13.147Z,3.53
2022-09-07T23:30:15.033Z,3.60
2022-09-07T23:35:16.875Z,3.10
2022-09-07T23:40:19.250Z,4.10
2022-09-07T23:45:21.057Z,3.83
2022-09-07T23:50:23.054Z,3.63
2022-09-07T23:55:25.002Z,4.07
